Time;durP1;ratioP1;P1;durP2;ratioP2;P2;SDS_P1;SDS_P2;PMS_P1;PMS_P2;Temp;Humidity;BMP_temperature;BMP_pressure;BME280_temperature;BME280_humidity;BME280_pressure;Samples;Min_cycle;Max_cycle;Signal;HPM_P1;HPM_P2
2023/10/06 00:01:58;;;;;;;10.30;4.50;;;;;;;23.62;92.24;99276.41;4903579;29;20043;-83
2023/10/06 00:04:42;;;;;;;11.13;4.47;;;;;;;23.50;92.11;99290.13;4901902;29;20391;-83
2023/10/06 00:07:26;;;;;;;12.48;4.40;;;;;;;23.89;91.68;99280.53;4885342;29;20045;-84
2023/10/06 00:10:17;;;;;;;9.93;4.22;;;;;;;23.84;91.73;99277.91;4886012;29;20559;-83
2023/10/06 00:13:04;;;;;;;11.82;4.50;;;;;;;23.76;91.49;99253.25;4902668;29;20109;-82
2023/10/06 00:15:51;;;;;;;10.23;4.10;;;;;;;23.45;92.67;99268.69;4902846;29;20046;-82
2023/10/06 00:18:38;;;;;;;10.15;4.28;;;;;;;23.62;91.90;99249.63;4890289;29;20046;-84
2023/10/06 00:21:22;;;;;;;8.43;4.10;;;;;;;23.67;91.56;99277.16;4907764;29;20107;-84
2023/10/06 00:24:07;;;;;;;9.90;4.30;;;;;;;23.61;91.77;99254.16;4902794;29;20043;-85
2023/10/06 00:26:52;;;;;;;12.85;4.50;;;;;;;23.21;92.29;99250.56;4891827;29;20051;-83
2023/10/06 00:29:37;;;;;;;8.30;4.20;;;;;;;23.65;92.27;99257.88;4904594;29;20055;-83
2023/10/06 00:32:27;;;;;;;7.35;4.20;;;;;;;23.46;92.84;99268.44;4897401;29;20090;-83
2023/10/06 00:35:14;;;;;;;9.65;4.47;;;;;;;23.20;93.23;99249.75;4902255;29;20104;-83
2023/10/06 00:38:11;;;;;;;10.63;3.92;;;;;;;23.23;93.30;99262.59;4907378;29;20096;-82
2023/10/06 00:40:56;;;;;;;7.82;3.88;;;;;;;23.24;93.24;99266.88;4889493;29;20483;-83
2023/10/06 00:43:43;;;;;;;9.70;3.90;;;;;;;23.48;93.80;99268.97;4904167;29;20525;-83
2023/10/06 00:46:30;;;;;;;7.00;3.72;;;;;;;23.76;92.21;99266.66;4907233;29;20048;-83
2023/10/06 00:49:16;;;;;;;9.95;3.70;;;;;;;23.84;91.52;99267.97;4910114;29;20254;-83
2023/10/06 00:52:00;;;;;;;8.40;3.88;;;;;;;23.85;91.51;99268.78;4904594;29;20419;-83
2023/10/06 00:54:46;;;;;;;7.28;3.88;;;;;;;23.84;91.33;99259.91;4908048;29;20131;-83
2023/10/06 00:57:34;;;;;;;9.65;3.72;;;;;;;23.57;92.13;99254.97;4889378;29;20055;-82
2023/10/06 01:00:21;;;;;;;7.97;4.40;;;;;;;23.79;91.10;99260.78;4908571;29;20054;-83
2023/10/06 01:03:10;;;;;;;6.75;4.10;;;;;;;23.88;91.34;99250.28;4905660;29;20411;-83
2023/10/06 01:06:00;;;;;;;6.07;3.70;;;;;;;23.85;91.41;99241.97;4909547;29;20055;-83
2023/10/06 01:08:52;;;;;;;5.13;3.83;;;;;;;23.67;91.60;99241.53;4905287;29;20044;-83
2023/10/06 01:11:49;;;;;;;6.43;3.30;;;;;;;23.79;91.55;99233.97;4909900;29;20059;-83
2023/10/06 01:14:34;;;;;;;6.07;4.05;;;;;;;23.57;92.23;99225.50;4908946;29;20060;-82
2023/10/06 01:17:19;;;;;;;8.82;3.60;;;;;;;23.85;91.59;99221.31;4910009;29;20099;-83
2023/10/06 01:20:03;;;;;;;8.73;3.53;;;;;;;23.71;92.24;99215.78;4887082;29;20081;-84
2023/10/06 01:22:52;;;;;;;7.53;3.03;;;;;;;23.63;92.60;99200.31;4901006;29;20107;-82
2023/10/06 01:25:37;;;;;;;8.52;3.25;;;;;;;23.63;92.63;99194.94;4890891;29;20047;-81
2023/10/06 01:28:23;;;;;;;5.45;2.75;;;;;;;23.80;91.62;99198.06;4904729;29;20051;-83
2023/10/06 01:31:07;;;;;;;10.07;2.75;;;;;;;23.58;92.63;99178.88;4890586;29;20451;-83
2023/10/06 01:33:51;;;;;;;2.90;2.22;;;;;;;23.15;93.37;99171.34;4905654;29;20530;-83
2023/10/06 01:36:38;;;;;;;5.22;2.70;;;;;;;23.63;92.45;99170.84;4909420;29;20047;-84
2023/10/06 01:39:30;;;;;;;4.32;2.53;;;;;;;23.48;93.49;99147.59;4891410;29;20096;-83
2023/10/06 01:42:17;;;;;;;3.78;2.70;;;;;;;23.50;92.32;99146.25;4892486;29;20106;-84
2023/10/06 01:45:13;;;;;;;5.00;2.20;;;;;;;23.56;92.66;99148.88;4906930;29;20051;-83
2023/10/06 01:50:57;;;;;;;5.68;2.58;;;;;;;23.58;92.68;99144.88;4906056;29;20058;-84
2023/10/06 01:53:43;;;;;;;6.35;2.70;;;;;;;23.30;93.69;99141.03;4890322;29;20052;-84
2023/10/06 01:56:27;;;;;;;5.72;2.50;;;;;;;23.35;93.83;99140.97;4905026;29;20853;-84
2023/10/06 01:59:12;;;;;;;4.05;2.20;;;;;;;22.94;93.98;99145.44;4902349;29;20087;-84
2023/10/06 02:02:01;;;;;;;3.67;1.98;;;;;;;23.43;93.05;99131.56;4906919;29;20055;-84
2023/10/06 02:04:50;;;;;;;3.15;1.98;;;;;;;23.39;93.74;99139.38;4888846;29;20742;-84
2023/10/06 02:07:35;;;;;;;2.60;2.10;;;;;;;22.92;95.72;99130.75;4907523;29;20092;-84
2023/10/06 02:10:22;;;;;;;4.95;2.10;;;;;;;23.16;95.38;99125.53;4890051;29;20132;-83
2023/10/06 02:13:07;;;;;;;5.15;2.70;;;;;;;23.52;94.10;99136.06;4898853;29;20152;-83
2023/10/06 02:15:58;;;;;;;3.45;2.15;;;;;;;23.18;94.79;99123.38;4894167;29;20099;-82
2023/10/06 02:18:42;;;;;;;4.30;2.35;;;;;;;23.35;94.65;99123.06;4889171;29;20443;-83
2023/10/06 02:21:28;;;;;;;4.40;2.50;;;;;;;23.40;94.23;99111.50;4907721;29;20501;-83
2023/10/06 02:24:16;;;;;;;4.97;2.00;;;;;;;23.74;93.63;99113.38;4892282;29;20059;-84
2023/10/06 02:27:01;;;;;;;5.10;2.45;;;;;;;23.38;94.11;99111.78;4892228;29;20047;-83
2023/10/06 02:29:49;;;;;;;3.22;2.20;;;;;;;22.62;96.41;99105.69;4906110;29;20043;-83
2023/10/06 02:32:35;;;;;;;4.05;2.40;;;;;;;23.08;95.17;99092.09;4882444;29;20081;-83
2023/10/06 02:35:20;;;;;;;5.68;2.75;;;;;;;23.45;94.61;99089.22;4903643;29;20508;-83
2023/10/06 02:38:05;;;;;;;5.03;2.13;;;;;;;23.53;95.12;99083.28;4886887;29;20047;-83
2023/10/06 02:40:49;;;;;;;5.30;2.40;;;;;;;23.43;95.27;99081.50;4902749;29;20514;-84
2023/10/06 02:43:34;;;;;;;4.65;2.47;;;;;;;23.06;97.37;99056.00;4896178;29;20051;-83
2023/10/06 02:46:23;;;;;;;2.92;2.40;;;;;;;22.89;97.45;99075.06;4904861;29;20415;-82
2023/10/06 02:49:09;;;;;;;4.40;2.30;;;;;;;22.75;99.00;99058.81;4892931;29;20055;-83
2023/10/06 02:51:54;;;;;;;4.45;2.05;;;;;;;23.15;97.86;99069.59;4893597;29;20050;-82
2023/10/06 02:54:44;;;;;;;2.92;2.40;;;;;;;23.22;98.10;99062.84;4901807;29;20047;-84
2023/10/06 02:57:34;;;;;;;4.80;2.00;;;;;;;22.81;99.19;99063.09;4905357;29;20076;-83
2023/10/06 03:03:18;;;;;;;4.80;2.65;;;;;;;23.02;98.86;99076.38;4902608;29;20063;-83
2023/10/06 03:06:07;;;;;;;6.00;2.95;;;;;;;23.21;99.03;99060.44;4888026;29;20077;-83
2023/10/06 03:08:51;;;;;;;3.72;2.50;;;;;;;22.94;99.63;99086.56;4904308;29;20038;-82
2023/10/06 03:11:36;;;;;;;5.85;2.80;;;;;;;23.15;99.39;99085.66;4905793;29;20084;-83
2023/10/06 03:14:25;;;;;;;4.80;2.58;;;;;;;23.31;99.42;99063.09;4905967;29;20058;-83
2023/10/06 03:17:11;;;;;;;7.28;2.58;;;;;;;22.94;100.00;99059.78;4905836;29;20128;-82
2023/10/06 03:20:18;;;;;;;5.82;2.63;;;;;;;23.32;98.99;99086.13;4886796;29;20515;-82
2023/10/06 03:23:13;;;;;;;3.22;2.70;;;;;;;22.83;100.00;99052.91;4905281;29;20069;-82
2023/10/06 03:25:58;;;;;;;4.68;2.40;;;;;;;23.62;98.40;99062.06;4890241;29;20515;-83
2023/10/06 03:28:43;;;;;;;7.75;2.95;;;;;;;23.32;98.99;99063.88;4900596;29;20116;-82
2023/10/06 03:31:44;;;;;;;4.18;2.33;;;;;;;23.57;98.07;99059.41;4901426;29;20070;-82
2023/10/06 03:34:28;;;;;;;6.35;2.50;;;;;;;23.26;98.60;99071.13;4906196;29;20055;-83
2023/10/06 03:37:16;;;;;;;6.90;2.58;;;;;;;23.47;98.69;99049.56;4891917;29;20055;-82
2023/10/06 03:40:13;;;;;;;7.15;2.55;;;;;;;23.31;99.12;99057.75;4901152;29;20067;-83
2023/10/06 03:43:04;;;;;;;4.35;3.08;;;;;;;23.20;99.38;99072.22;4903701;29;20059;-82
2023/10/06 03:45:49;;;;;;;4.90;2.40;;;;;;;23.59;98.75;99065.31;4903707;29;20448;-82
2023/10/06 03:48:38;;;;;;;5.38;2.47;;;;;;;24.03;96.89;99056.34;4885676;29;20092;-82
2023/10/06 03:51:22;;;;;;;4.78;2.25;;;;;;;24.22;96.10;99088.59;4891106;29;20043;-82
2023/10/06 03:54:10;;;;;;;3.20;2.60;;;;;;;24.24;95.47;99096.34;4904997;29;20063;-82
2023/10/06 03:56:54;;;;;;;9.23;3.13;;;;;;;24.02;95.83;99097.66;4905930;29;20055;-82
2023/10/06 03:59:39;;;;;;;7.78;2.95;;;;;;;23.95;95.96;99084.53;4901435;29;20070;-83
2023/10/06 04:02:38;;;;;;;4.78;3.05;;;;;;;23.92;96.50;99103.06;4904639;29;20099;-82
2023/10/06 04:05:22;;;;;;;3.38;2.70;;;;;;;24.53;94.61;99101.69;4885485;29;20104;-83
2023/10/06 04:08:13;;;;;;;8.35;3.20;;;;;;;24.13;95.01;99098.34;4902132;29;20153;-83
2023/10/06 04:10:58;;;;;;;5.63;2.92;;;;;;;23.93;96.08;99083.22;4903963;29;20075;-82
2023/10/06 04:13:42;;;;;;;8.32;2.67;;;;;;;24.43;94.55;99087.59;4900604;29;20115;-82
2023/10/06 04:16:26;;;;;;;6.85;3.15;;;;;;;24.19;95.14;99088.38;4888265;29;20047;-83
2023/10/06 04:19:10;;;;;;;4.57;2.45;;;;;;;24.26;95.47;99096.88;4901422;29;20505;-82
2023/10/06 04:21:54;;;;;;;6.75;2.95;;;;;;;24.45;94.43;99085.41;4890448;29;20043;-82
2023/10/06 04:24:40;;;;;;;6.38;2.63;;;;;;;23.62;96.73;99078.13;4905981;29;20103;-82
2023/10/06 04:27:24;;;;;;;5.05;2.88;;;;;;;23.99;95.97;99071.38;4903313;29;20035;-82
2023/10/06 04:30:13;;;;;;;5.75;2.80;;;;;;;23.83;96.52;99070.69;4901565;29;20079;-82
2023/10/06 04:32:57;;;;;;;6.85;3.30;;;;;;;24.24;95.73;99085.63;4903524;29;20107;-82
2023/10/06 04:35:49;;;;;;;6.65;2.95;;;;;;;24.41;94.90;99081.72;4888282;29;20051;-82
2023/10/06 04:38:37;;;;;;;5.18;2.72;;;;;;;24.28;95.42;99101.97;4899141;29;20096;-82
2023/10/06 04:41:21;;;;;;;4.15;2.67;;;;;;;24.37;94.66;99084.97;4900789;29;20054;-81
2023/10/06 04:44:07;;;;;;;7.22;3.00;;;;;;;24.18;94.93;99071.47;4901947;29;20411;-82
2023/10/06 04:46:52;;;;;;;4.60;3.15;;;;;;;24.31;95.02;99070.00;4904373;29;20055;-82
2023/10/06 04:49:36;;;;;;;7.57;2.88;;;;;;;23.84;95.51;99069.63;4903387;29;20435;-82
2023/10/06 04:52:20;;;;;;;7.57;3.00;;;;;;;24.01;95.78;99069.22;4891147;29;20132;-82
2023/10/06 04:55:05;;;;;;;3.70;2.58;;;;;;;24.08;96.17;99077.75;4899164;29;20052;-82
2023/10/06 04:57:50;;;;;;;3.60;2.60;;;;;;;23.85;97.02;99075.78;4900819;29;20415;-82
2023/10/06 05:00:33;;;;;;;4.22;2.47;;;;;;;23.73;97.25;99082.31;4905378;29;20124;-83
2023/10/06 05:03:17;;;;;;;5.55;2.72;;;;;;;23.89;96.88;99082.19;4901239;29;20293;-82
2023/10/06 05:06:09;;;;;;;4.95;2.55;;;;;;;23.48;97.03;99073.41;4909404;29;20192;-82
2023/10/06 05:08:54;;;;;;;8.13;2.58;;;;;;;24.19;95.84;99065.03;4907782;29;20447;-82
2023/10/06 05:11:38;;;;;;;4.95;2.38;;;;;;;24.26;95.61;99067.38;4908818;29;20067;-82
2023/10/06 05:14:23;;;;;;;7.18;2.65;;;;;;;24.29;94.61;99068.69;4910342;29;20051;-82
2023/10/06 05:17:08;;;;;;;4.78;1.98;;;;;;;24.06;95.60;99079.91;4910997;29;20051;-82
2023/10/06 05:19:52;;;;;;;2.88;2.22;;;;;;;24.01;95.38;99068.41;4904978;29;20119;-82
2023/10/06 05:22:36;;;;;;;5.57;1.92;;;;;;;23.71;96.28;99084.47;4888547;29;20047;-83
2023/10/06 05:25:20;;;;;;;3.40;1.92;;;;;;;23.88;96.12;99083.25;4907907;29;20128;-82
2023/10/06 05:28:10;;;;;;;5.53;2.28;;;;;;;23.78;96.19;99092.19;4911662;29;20077;-82
2023/10/06 05:30:54;;;;;;;4.22;2.40;;;;;;;24.22;94.65;99069.03;4901523;29;20118;-83
2023/10/06 05:33:40;;;;;;;4.85;2.45;;;;;;;23.93;96.51;99078.66;4911523;29;20530;-83
2023/10/06 05:36:24;;;;;;;3.03;2.08;;;;;;;24.14;94.95;99073.13;4910140;29;20052;-83
2023/10/06 05:39:11;;;;;;;2.40;1.90;;;;;;;23.76;96.38;99071.03;4888207;29;20047;-83
2023/10/06 05:41:56;;;;;;;4.50;2.05;;;;;;;23.73;96.77;99060.09;4901837;29;20055;-83
2023/10/06 05:44:40;;;;;;;7.05;2.03;;;;;;;23.48;97.04;99053.84;4904116;29;20553;-83
2023/10/06 05:47:26;;;;;;;3.50;1.80;;;;;;;23.06;100.00;99061.34;4908192;29;20039;-83
2023/10/06 05:50:11;;;;;;;3.75;2.05;;;;;;;23.41;99.04;99016.69;4904720;29;20521;-82
2023/10/06 05:53:04;;;;;;;5.43;1.90;;;;;;;23.88;96.47;99067.19;4907293;29;20072;-82
2023/10/06 05:55:52;;;;;;;3.78;2.00;;;;;;;24.14;95.82;99057.03;4907904;29;20120;-83
2023/10/06 05:58:40;;;;;;;6.32;2.22;;;;;;;24.38;94.46;99058.91;4902391;29;20048;-83
2023/10/06 06:01:28;;;;;;;3.97;2.20;;;;;;;24.68;93.85;99063.13;4894266;29;20099;-84
2023/10/06 06:04:15;;;;;;;6.13;2.58;;;;;;;24.99;91.79;99053.09;4891069;29;20103;-83
2023/10/06 06:07:02;;;;;;;5.95;2.75;;;;;;;24.61;92.61;99062.69;4906771;29;20119;-83
2023/10/06 06:09:46;;;;;;;3.15;2.25;;;;;;;24.91;92.01;99066.06;4902749;29;20132;-83
2023/10/06 06:12:31;;;;;;;5.20;2.15;;;;;;;24.36;93.08;99053.84;4908254;29;20490;-81
2023/10/06 06:15:16;;;;;;;6.93;2.30;;;;;;;24.18;93.18;99078.72;4889822;29;20168;-83
2023/10/06 06:18:01;;;;;;;5.40;2.75;;;;;;;24.46;92.66;99081.63;4889987;29;20056;-83
2023/10/06 06:20:45;;;;;;;4.45;2.25;;;;;;;24.66;91.88;99078.72;4887429;29;20046;-82
2023/10/06 06:23:35;;;;;;;5.68;2.40;;;;;;;24.13;93.25;99089.50;4889052;29;20043;-84
2023/10/06 06:26:19;;;;;;;2.95;2.33;;;;;;;24.32;93.08;99087.69;4907607;29;20103;-81
2023/10/06 06:29:08;;;;;;;8.07;2.47;;;;;;;24.12;93.23;99101.28;4909985;29;20055;-83
2023/10/06 06:31:52;;;;;;;3.40;2.53;;;;;;;24.48;93.09;99119.72;4889698;29;20632;-83
2023/10/06 06:34:36;;;;;;;6.55;2.58;;;;;;;24.47;92.05;99102.00;4886367;29;20088;-83
2023/10/06 06:37:23;;;;;;;6.68;2.22;;;;;;;24.58;92.45;99122.28;4888240;29;20449;-84
2023/10/06 06:40:10;;;;;;;6.03;2.20;;;;;;;24.55;92.54;99132.78;4906708;29;20106;-83
2023/10/06 06:42:55;;;;;;;5.90;2.63;;;;;;;24.61;92.19;99124.41;4903754;29;20087;-83
2023/10/06 06:45:39;;;;;;;3.75;2.53;;;;;;;24.50;92.50;99126.41;4905675;29;20135;-81
2023/10/06 06:48:23;;;;;;;3.42;2.38;;;;;;;24.29;93.30;99123.13;4887310;29;20043;-81
2023/10/06 06:51:07;;;;;;;4.22;2.40;;;;;;;24.26;92.79;99129.06;4892266;29;20058;-82
2023/10/06 06:53:51;;;;;;;4.78;2.15;;;;;;;24.34;93.57;99139.16;4899548;29;20092;-80
2023/10/06 06:56:36;;;;;;;3.47;2.20;;;;;;;24.51;92.68;99143.28;4894610;29;20437;-82
2023/10/06 06:59:20;;;;;;;4.38;2.25;;;;;;;24.65;92.83;99138.84;4894877;29;20051;-86
2023/10/06 07:02:05;;;;;;;4.82;2.08;;;;;;;24.01;94.27;99149.63;4904390;29;20065;-85
2023/10/06 07:04:49;;;;;;;3.38;1.75;;;;;;;24.46;93.05;99151.41;4899902;29;20036;-85
2023/10/06 07:07:33;;;;;;;3.60;2.15;;;;;;;24.51;92.49;99151.34;4893261;29;20091;-83
2023/10/06 07:10:22;;;;;;;3.75;1.77;;;;;;;25.02;90.86;99149.19;4906811;29;20087;-82
2023/10/06 07:13:07;;;;;;;5.07;2.00;;;;;;;24.61;92.23;99167.34;4893978;29;20517;-81
2023/10/06 07:15:50;;;;;;;;;;;;;;;24.07;93.04;99159.25;4903525;29;20095;-78
2023/10/06 07:18:35;;;;;;;6.63;2.22;;;;;;;24.51;92.08;99165.56;4900682;29;20393;-80
2023/10/06 07:21:19;;;;;;;1.88;1.60;;;;;;;24.94;90.68;99166.72;4901720;29;20260;-81
2023/10/06 07:24:03;;;;;;;2.53;1.77;;;;;;;24.93;91.03;99167.81;4902907;29;20047;-81
2023/10/06 07:26:47;;;;;;;2.58;1.73;;;;;;;24.78;91.22;99176.84;4906439;29;20057;-81
2023/10/06 07:29:31;;;;;;;3.15;1.60;;;;;;;24.68;91.64;99189.25;4900003;29;20554;-81
2023/10/06 07:32:15;;;;;;;3.88;2.00;;;;;;;24.79;91.17;99199.94;4905049;29;20510;-81
2023/10/06 07:35:00;;;;;;;3.60;1.63;;;;;;;25.17;90.09;99208.06;4901330;29;20480;-82
2023/10/06 07:37:49;;;;;;;3.35;1.73;;;;;;;25.33;89.77;99197.91;4899793;29;20124;-81
2023/10/06 07:40:36;;;;;;;1.92;1.58;;;;;;;25.67;87.82;99217.66;4888225;29;20476;-81
2023/10/06 07:43:23;;;;;;;3.47;1.63;;;;;;;25.07;89.88;99221.63;4887482;29;20050;-81
2023/10/06 07:46:07;;;;;;;8.60;2.40;;;;;;;25.12;89.90;99232.28;4904486;29;20050;-80
2023/10/06 07:48:55;;;;;;;5.18;1.77;;;;;;;25.24;89.69;99227.31;4903140;29;20052;-81
2023/10/06 07:51:39;;;;;;;4.63;1.80;;;;;;;25.41;88.94;99231.41;4902550;29;20043;-81
2023/10/06 07:54:23;;;;;;;3.33;1.73;;;;;;;25.72;87.74;99231.00;4902461;29;20075;-81
2023/10/06 07:57:09;;;;;;;5.88;2.00;;;;;;;25.25;89.03;99249.59;4888598;29;20395;-81
2023/10/06 07:59:54;;;;;;;4.18;1.77;;;;;;;25.51;88.60;99236.66;4897795;29;20542;-81
2023/10/06 08:02:40;;;;;;;2.03;1.73;;;;;;;25.77;87.59;99240.88;4893776;29;20124;-81
2023/10/06 08:05:24;;;;;;;5.60;2.00;;;;;;;26.00;87.43;99249.16;4882623;29;20618;-82
2023/10/06 08:08:08;;;;;;;3.72;1.67;;;;;;;25.89;87.42;99256.59;4897561;29;20043;-81
2023/10/06 08:10:53;;;;;;;3.13;2.10;;;;;;;26.17;86.24;99244.06;4883542;29;20058;-85
2023/10/06 08:13:38;;;;;;;5.68;2.47;;;;;;;26.19;86.08;99239.19;4907679;29;20052;-85
2023/10/06 08:16:23;;;;;;;4.55;2.00;;;;;;;26.09;86.54;99258.97;4901464;29;20095;-85
2023/10/06 08:19:10;;;;;;;4.68;2.25;;;;;;;26.45;85.59;99246.06;4907716;29;20130;-85
2023/10/06 08:21:55;;;;;;;4.85;2.08;;;;;;;26.04;85.98;99253.66;4888609;29;20047;-81
2023/10/06 08:24:40;;;;;;;5.72;2.25;;;;;;;25.83;87.31;99239.72;4905552;29;20068;-80
2023/10/06 08:27:23;;;;;;;3.30;2.03;;;;;;;25.52;87.16;99238.25;4890814;29;20059;-80
2023/10/06 08:30:16;;;;;;;5.43;2.40;;;;;;;25.75;86.60;99246.56;4905139;29;20070;-80
2023/10/06 08:33:02;;;;;;;6.13;2.40;;;;;;;25.51;87.66;99263.53;4903832;29;20099;-82
2023/10/06 08:35:54;;;;;;;3.65;2.15;;;;;;;25.89;86.73;99251.19;4907909;29;20126;-81
2023/10/06 08:38:39;;;;;;;3.05;2.05;;;;;;;26.06;86.70;99277.59;4910473;29;20080;-81
2023/10/06 08:41:29;;;;;;;3.70;2.30;;;;;;;25.91;86.53;99283.97;4905182;29;20503;-81
2023/10/06 08:44:13;;;;;;;5.60;2.53;;;;;;;25.73;87.19;99281.00;4908204;29;20072;-82
2023/10/06 08:46:57;;;;;;;5.30;2.38;;;;;;;25.57;87.64;99276.94;4892367;29;20052;-81
2023/10/06 08:49:43;;;;;;;6.63;2.30;;;;;;;25.93;87.30;99301.44;4906089;29;20538;-81
2023/10/06 08:52:29;;;;;;;4.65;2.50;;;;;;;25.02;89.70;99280.75;4911936;29;20387;-81
2023/10/06 08:55:15;;;;;;;2.65;2.45;;;;;;;25.99;87.84;99288.72;4908461;29;20047;-83
2023/10/06 08:57:59;;;;;;;3.85;2.72;;;;;;;25.96;87.70;99270.47;4909168;29;20470;-81
2023/10/06 09:00:43;;;;;;;4.25;2.53;;;;;;;26.00;88.27;99278.75;4907336;29;20439;-82
2023/10/06 09:03:29;;;;;;;7.18;3.08;;;;;;;26.06;88.38;99274.91;4893937;29;20154;-82
2023/10/06 09:06:18;;;;;;;4.20;2.50;;;;;;;26.23;88.23;99269.00;4905739;29;20047;-81
2023/10/06 09:09:03;;;;;;;6.10;3.03;;;;;;;26.30;87.81;99272.13;4894334;29;20046;-82
2023/10/06 09:11:47;;;;;;;5.05;2.50;;;;;;;26.46;87.76;99264.59;4903952;29;20051;-81
2023/10/06 09:14:31;;;;;;;6.45;2.85;;;;;;;26.04;88.18;99285.13;4906986;29;20055;-82
2023/10/06 09:17:30;;;;;;;4.55;2.92;;;;;;;26.50;86.96;99264.78;4909025;29;20559;-82
2023/10/06 09:20:28;;;;;;;6.15;2.72;;;;;;;26.28;87.21;99257.38;4910868;29;20042;-82
2023/10/06 09:23:13;;;;;;;5.18;2.60;;;;;;;26.41;86.90;99267.38;4908681;29;20513;-82
2023/10/06 09:26:00;;;;;;;5.93;2.75;;;;;;;26.18;87.33;99279.88;4907966;29;20088;-82
2023/10/06 09:28:53;;;;;;;5.53;2.80;;;;;;;26.56;86.84;99274.41;4909936;29;20092;-81
2023/10/06 09:31:38;;;;;;;5.90;2.40;;;;;;;26.09;87.45;99283.16;4908125;29;20047;-82
2023/10/06 09:34:25;;;;;;;3.47;2.40;;;;;;;26.00;87.57;99301.06;4904604;29;20546;-80
2023/10/06 09:37:20;;;;;;;6.68;2.63;;;;;;;26.34;86.99;99293.88;4905497;29;20054;-80
2023/10/06 09:40:20;;;;;;;3.88;2.50;;;;;;;25.97;87.54;99309.72;4892977;29;20051;-80
2023/10/06 09:43:05;;;;;;;5.55;2.42;;;;;;;26.22;87.05;99291.63;4910019;29;20096;-81
2023/10/06 09:45:51;;;;;;;6.20;2.90;;;;;;;26.71;85.90;99294.06;4889784;29;20051;-80
2023/10/06 09:48:38;;;;;;;8.70;2.83;;;;;;;25.77;88.21;99283.91;4895447;29;20043;-80
2023/10/06 09:51:25;;;;;;;7.13;2.55;;;;;;;26.55;87.65;99290.84;4903800;29;20043;-80
2023/10/06 09:54:11;;;;;;;9.32;2.70;;;;;;;26.38;87.29;99294.88;4892422;29;20051;-80
2023/10/06 09:57:00;;;;;;;6.43;2.88;;;;;;;26.25;87.24;99296.41;4907615;29;20460;-82
2023/10/06 09:59:55;;;;;;;7.32;3.08;;;;;;;26.78;85.64;99297.19;4904765;29;20043;-81
2023/10/06 10:02:40;;;;;;;4.25;2.58;;;;;;;26.72;85.37;99298.34;4907976;29;20051;-82
2023/10/06 10:05:25;;;;;;;6.47;2.88;;;;;;;26.70;85.36;99295.16;4905574;29;20047;-81
2023/10/06 10:08:10;;;;;;;7.28;3.13;;;;;;;26.65;85.34;99296.06;4890496;29;20092;-81
2023/10/06 10:11:00;;;;;;;9.32;3.10;;;;;;;26.89;85.21;99297.81;4888583;29;20518;-81
2023/10/06 10:14:06;;;;;;;7.53;2.85;;;;;;;26.93;85.02;99313.09;4889226;29;20047;-81
2023/10/06 10:17:08;;;;;;;7.63;3.08;;;;;;;26.60;85.78;99310.41;4904961;29;20079;-80
2023/10/06 10:19:56;;;;;;;7.22;3.08;;;;;;;26.08;86.42;99313.06;4904484;29;20046;-81
2023/10/06 10:22:42;;;;;;;6.43;3.22;;;;;;;26.54;86.17;99302.69;4890386;29;20127;-78
2023/10/06 10:25:29;;;;;;;10.77;3.10;;;;;;;26.49;86.50;99300.88;4885296;29;20459;-80
2023/10/06 10:28:27;;;;;;;6.13;3.10;;;;;;;26.34;87.15;99289.28;4903595;29;20043;-79
2023/10/06 10:31:17;;;;;;;9.45;3.47;;;;;;;26.44;86.18;99284.81;4888482;29;20402;-79
2023/10/06 10:34:02;;;;;;;7.93;3.45;;;;;;;26.15;86.81;99272.34;4888886;29;20051;-79
2023/10/06 10:36:48;;;;;;;8.15;2.50;;;;;;;26.40;86.75;99287.28;4903725;29;20060;-79
2023/10/06 10:39:43;;;;;;;5.30;3.13;;;;;;;26.90;85.10;99275.19;4905553;29;20092;-80
2023/10/06 10:42:38;;;;;;;4.53;3.08;;;;;;;26.76;85.34;99272.44;4906594;29;20059;-80
2023/10/06 10:45:30;;;;;;;8.15;3.20;;;;;;;26.62;85.99;99278.59;4890331;29;20488;-79
2023/10/06 10:48:15;;;;;;;5.47;3.05;;;;;;;26.33;86.12;99263.44;4901050;29;20559;-79
2023/10/06 10:51:01;;;;;;;8.07;3.28;;;;;;;26.54;85.46;99263.13;4901680;29;20051;-78
2023/10/06 10:53:52;;;;;;;7.72;3.03;;;;;;;26.42;85.79;99257.41;4887968;29;20615;-79
2023/10/06 10:56:38;;;;;;;8.48;3.47;;;;;;;26.27;86.46;99270.03;4889942;29;20412;-79
2023/10/06 11:03:04;;;;;;;7.18;3.55;;;;;;;27.02;83.49;99261.22;4903136;29;20164;-80
2023/10/06 11:05:57;;;;;;;6.32;3.20;;;;;;;26.07;86.11;99273.81;4890867;29;20058;-79
2023/10/06 11:08:41;;;;;;;8.15;3.42;;;;;;;26.55;84.80;99250.47;4907362;29;20056;-79
2023/10/06 11:11:25;;;;;;;7.65;2.92;;;;;;;26.38;84.67;99268.78;4903499;29;20088;-80
2023/10/06 11:14:09;;;;;;;4.65;2.95;;;;;;;27.47;82.81;99255.97;4890947;29;20591;-79
2023/10/06 11:17:05;;;;;;;5.25;2.58;;;;;;;26.90;82.94;99273.25;4903240;29;20046;-80
2023/10/06 11:20:12;;;;;;;5.75;2.65;;;;;;;27.18;82.60;99272.47;4887533;29;20047;-79
2023/10/06 11:23:01;;;;;;;7.65;2.90;;;;;;;26.76;83.02;99258.97;4883189;29;20563;-79
2023/10/06 11:25:48;;;;;;;5.95;2.83;;;;;;;27.36;81.93;99273.47;4892977;29;20091;-80
2023/10/06 11:28:42;;;;;;;8.57;2.60;;;;;;;27.39;81.42;99256.69;4897831;29;20120;-78
2023/10/06 11:31:27;;;;;;;12.65;3.40;;;;;;;26.90;82.69;99267.09;4904131;29;20043;-79
2023/10/06 11:34:12;;;;;;;7.00;2.80;;;;;;;26.97;82.46;99245.16;4898642;29;20082;-78
2023/10/06 11:36:57;;;;;;;5.15;2.33;;;;;;;26.41;83.26;99245.06;4900262;29;20063;-79
2023/10/06 11:39:51;;;;;;;4.88;2.85;;;;;;;26.90;82.89;99251.72;4899274;29;20096;-80
2023/10/06 11:42:39;;;;;;;8.65;2.42;;;;;;;27.46;82.15;99251.69;4888004;29;20047;-79
2023/10/06 11:45:31;;;;;;;7.05;2.50;;;;;;;27.20;81.50;99252.22;4900535;29;20087;-80
2023/10/06 11:48:28;;;;;;;5.68;2.35;;;;;;;27.19;81.48;99229.06;4905167;29;20051;-79
2023/10/06 11:51:13;;;;;;;5.07;2.30;;;;;;;27.26;80.97;99225.16;4893259;29;20111;-78
2023/10/06 11:53:59;;;;;;;6.22;2.33;;;;;;;27.17;80.70;99228.59;4885388;29;20104;-80
2023/10/06 11:56:50;;;;;;;5.80;2.95;;;;;;;27.59;80.82;99233.13;4903282;29;20104;-79
2023/10/06 11:59:34;;;;;;;7.50;3.00;;;;;;;27.33;80.95;99220.19;4903031;29;20052;-79
2023/10/06 12:02:19;;;;;;;7.32;2.35;;;;;;;27.25;80.17;99218.19;4903335;29;20187;-79
2023/10/06 12:05:10;;;;;;;4.55;2.30;;;;;;;26.79;81.04;99194.53;4901826;29;22022;-78
2023/10/06 12:08:05;;;;;;;4.63;2.22;;;;;;;26.90;80.60;99230.19;4902645;29;20039;-79
2023/10/06 12:10:51;;;;;;;4.93;1.92;;;;;;;27.69;79.20;99205.91;4900057;29;20116;-80
2023/10/06 12:13:36;;;;;;;4.10;2.38;;;;;;;27.48;79.10;99178.63;4891442;29;20134;-79
2023/10/06 12:16:20;;;;;;;4.32;2.25;;;;;;;26.63;80.64;99204.81;4901656;29;20047;-79
2023/10/06 12:19:05;;;;;;;6.00;2.25;;;;;;;27.69;79.83;99187.03;4907771;29;20079;-79
2023/10/06 12:21:50;;;;;;;6.25;1.95;;;;;;;27.64;78.96;99197.97;4901331;29;20096;-82
2023/10/06 12:24:34;;;;;;;5.70;2.13;;;;;;;27.59;78.84;99184.59;4900278;29;20124;-82
2023/10/06 12:27:19;;;;;;;6.20;2.20;;;;;;;28.43;77.70;99190.41;4906648;29;20055;-81
2023/10/06 12:30:06;;;;;;;3.45;1.92;;;;;;;28.03;77.11;99172.22;4901338;29;20129;-83
2023/10/06 12:32:51;;;;;;;7.43;1.90;;;;;;;28.24;77.20;99166.31;4893492;29;20132;-80
2023/10/06 12:35:39;;;;;;;4.78;2.33;;;;;;;27.73;77.87;99161.09;4898678;29;20063;-79
2023/10/06 12:38:26;;;;;;;6.93;2.08;;;;;;;27.90;77.09;99164.97;4887908;29;20391;-79
2023/10/06 12:41:12;;;;;;;8.18;2.30;;;;;;;27.26;78.81;99176.66;4888632;29;20047;-80
2023/10/06 12:44:03;;;;;;;4.00;2.00;;;;;;;27.59;78.42;99168.44;4904162;29;20514;-80
2023/10/06 12:46:47;;;;;;;4.28;2.20;;;;;;;28.20;77.06;99165.34;4902929;29;20051;-79
2023/10/06 12:49:31;;;;;;;4.10;2.30;;;;;;;28.54;76.61;99180.13;4898005;29;20140;-79
2023/10/06 12:52:15;;;;;;;6.15;2.17;;;;;;;28.70;76.19;99167.00;4889640;29;20077;-79
2023/10/06 12:55:10;;;;;;;12.07;2.25;;;;;;;27.70;76.53;99183.25;4906051;29;20043;-78
2023/10/06 12:57:54;;;;;;;4.88;2.20;;;;;;;28.23;76.18;99180.94;4900098;29;20104;-79
2023/10/06 13:00:38;;;;;;;6.53;2.38;;;;;;;27.84;77.18;99195.88;4898772;29;20055;-81
2023/10/06 13:03:25;;;;;;;3.63;2.00;;;;;;;27.99;75.94;99168.53;4887214;29;20050;-79
2023/10/06 13:06:12;;;;;;;8.02;2.20;;;;;;;27.45;77.42;99176.53;4887722;29;20732;-78
2023/10/06 13:09:01;;;;;;;4.57;2.17;;;;;;;28.18;76.62;99181.06;4882639;29;20071;-83
2023/10/06 13:11:45;;;;;;;3.22;2.08;;;;;;;28.30;77.10;99186.69;4900579;29;20115;-84
2023/10/06 13:14:29;;;;;;;4.70;2.40;;;;;;;28.24;76.39;99177.13;4892982;29;20055;-84
2023/10/06 13:17:13;;;;;;;5.10;1.95;;;;;;;28.50;75.48;99171.06;4888988;29;20446;-83